createdAt,value
2023-02-03T00:02:32.230Z,2.57
2023-02-03T00:05:25.260Z,2.49
2023-02-03T00:08:18.810Z,2.46
2023-02-03T00:11:10.922Z,2.42
2023-02-03T00:13:48.255Z,2.40
2023-02-03T00:16:40.437Z,2.39
2023-02-03T00:19:32.676Z,2.40
2023-02-03T00:22:13.476Z,2.40
2023-02-03T00:25:06.681Z,2.38
2023-02-03T00:27:59.111Z,2.35
2023-02-03T00:30:54.096Z,2.33
2023-02-03T00:33:46.425Z,2.30
2023-02-03T00:36:39.046Z,2.30
2023-02-03T00:39:31.672Z,2.30
2023-02-03T00:42:23.791Z,2.24
2023-02-03T00:45:16.150Z,2.22
2023-02-03T00:48:08.609Z,2.22
2023-02-03T00:51:00.761Z,2.22
2023-02-03T00:53:52.867Z,2.24
2023-02-03T00:56:45.012Z,2.29
2023-02-03T00:59:37.189Z,2.30
2023-02-03T01:02:29.363Z,2.33
2023-02-03T01:05:21.743Z,2.38
2023-02-03T01:08:14.963Z,2.43
2023-02-03T01:11:11.305Z,2.43
2023-02-03T01:14:03.445Z,2.44
2023-02-03T01:16:55.775Z,2.43
2023-02-03T01:19:47.859Z,2.44
2023-02-03T01:22:40.368Z,2.43
2023-02-03T01:25:32.444Z,2.39
2023-02-03T01:28:24.620Z,2.33
2023-02-03T01:31:19.299Z,2.29
2023-02-03T01:34:16.294Z,2.23
2023-02-03T01:37:08.430Z,2.17
2023-02-03T01:40:00.514Z,2.11
2023-02-03T01:42:53.237Z,2.08
2023-02-03T01:45:47.048Z,2.04
2023-02-03T01:48:39.462Z,2.01
2023-02-03T01:51:32.774Z,1.96
2023-02-03T01:54:28.027Z,1.93
2023-02-03T01:57:24.080Z,1.94
2023-02-03T02:00:17.331Z,1.94
2023-02-03T02:03:10.937Z,1.93
2023-02-03T02:06:05.804Z,1.91
2023-02-03T02:09:00.759Z,1.87
2023-02-03T02:11:52.999Z,1.85
2023-02-03T02:14:47.133Z,1.82
2023-02-03T02:17:45.051Z,1.81
2023-02-03T02:20:55.585Z,1.76
2023-02-03T02:24:08.769Z,1.73
2023-02-03T02:26:55.912Z,1.73
2023-02-03T02:30:26.448Z,1.72
2023-02-03T02:33:28.845Z,1.70
2023-02-03T02:36:39.846Z,1.67
2023-02-03T02:39:45.228Z,1.64
2023-02-03T02:42:47.754Z,1.70
2023-02-03T02:45:47.054Z,1.69
2023-02-03T02:48:45.833Z,1.74
2023-02-03T02:51:40.654Z,1.79
2023-02-03T02:54:39.542Z,1.85
2023-02-03T02:57:35.704Z,1.90
2023-02-03T03:00:30.882Z,1.94
2023-02-03T03:03:25.361Z,1.97
2023-02-03T03:06:23.508Z,1.98
2023-02-03T03:09:20.395Z,1.97
2023-02-03T03:12:08.659Z,1.94
2023-02-03T03:15:06.375Z,1.88
2023-02-03T03:18:04.468Z,1.84
2023-02-03T03:21:05.951Z,1.78
2023-02-03T03:24:02.803Z,1.72
2023-02-03T03:26:58.524Z,1.68
2023-02-03T03:29:54.548Z,1.62
2023-02-03T03:32:47.397Z,1.59
2023-02-03T03:35:46.787Z,1.57
2023-02-03T03:38:42.160Z,1.54
2023-02-03T03:41:41.819Z,1.50
2023-02-03T03:44:39.210Z,1.47
2023-02-03T03:47:39.069Z,1.47
2023-02-03T03:50:35.538Z,1.48
2023-02-03T03:53:29.963Z,1.45
2023-02-03T03:56:25.648Z,1.41
2023-02-03T03:59:21.946Z,1.38
2023-02-03T04:02:17.193Z,1.37
2023-02-03T04:05:11.686Z,1.36
2023-02-03T04:08:03.937Z,1.29
2023-02-03T04:10:56.075Z,1.28
2023-02-03T04:13:48.224Z,1.32
2023-02-03T04:16:40.334Z,1.30
2023-02-03T04:19:32.594Z,1.28
2023-02-03T04:22:24.839Z,1.25
2023-02-03T04:25:17.198Z,1.21
2023-02-03T04:28:09.983Z,1.20
2023-02-03T04:31:04.305Z,1.19
2023-02-03T04:33:56.551Z,1.17
2023-02-03T04:36:48.673Z,1.12
2023-02-03T04:39:40.790Z,1.13
2023-02-03T04:42:32.964Z,1.14
2023-02-03T04:45:25.169Z,1.10
2023-02-03T04:48:17.419Z,1.02
2023-02-03T04:51:10.434Z,1.01
2023-02-03T04:54:02.482Z,1.04
2023-02-03T04:56:54.656Z,1.00
2023-02-03T04:59:46.779Z,1.00
2023-02-03T05:02:38.933Z,1.00
2023-02-03T05:05:31.103Z,0.95
2023-02-03T05:08:23.387Z,0.93
2023-02-03T05:11:15.468Z,0.92
2023-02-03T05:14:07.864Z,1.01
2023-02-03T05:17:00.031Z,1.03
2023-02-03T05:19:52.119Z,1.01
2023-02-03T05:22:44.255Z,1.08
2023-02-03T05:25:36.392Z,1.19
2023-02-03T05:28:28.696Z,1.22
2023-02-03T05:31:11.037Z,1.30
2023-02-03T05:34:03.142Z,1.37
2023-02-03T05:36:55.298Z,1.41
2023-02-03T05:39:47.374Z,1.39
2023-02-03T05:42:39.412Z,1.41
2023-02-03T05:45:31.532Z,1.42
2023-02-03T05:48:23.694Z,1.43
2023-02-03T05:51:15.952Z,1.40
2023-02-03T05:54:08.823Z,1.38
2023-02-03T05:57:00.957Z,1.38
2023-02-03T05:59:53.093Z,1.35
2023-02-03T06:02:45.186Z,1.24
2023-02-03T06:05:40.896Z,1.17
2023-02-03T06:08:32.972Z,1.12
2023-02-03T06:11:25.424Z,1.07
2023-02-03T06:14:17.510Z,1.05
2023-02-03T06:17:09.733Z,1.05
2023-02-03T06:20:02.458Z,1.05
2023-02-03T06:22:54.686Z,1.07
2023-02-03T06:25:46.972Z,1.09
2023-02-03T06:28:39.191Z,1.09
2023-02-03T06:31:31.383Z,1.02
2023-02-03T06:34:23.593Z,0.96
2023-02-03T06:37:15.775Z,0.94
2023-02-03T06:40:10.809Z,0.90
2023-02-03T06:43:02.917Z,0.82
2023-02-03T06:45:55.249Z,0.78
2023-02-03T06:48:47.442Z,0.75
2023-02-03T06:51:39.808Z,0.81
2023-02-03T06:54:31.965Z,0.82
2023-02-03T06:57:24.070Z,0.86
2023-02-03T07:00:19.755Z,0.85
2023-02-03T07:03:11.896Z,0.88
2023-02-03T07:06:04.021Z,0.95
2023-02-03T07:08:56.497Z,0.93
2023-02-03T07:11:48.662Z,0.90
2023-02-03T07:14:40.708Z,0.89
2023-02-03T07:17:32.962Z,0.90
2023-02-03T07:20:26.170Z,0.84
2023-02-03T07:23:18.707Z,0.84
2023-02-03T07:26:11.919Z,0.80
2023-02-03T07:29:04.204Z,0.78
2023-02-03T07:31:57.061Z,0.80
2023-02-03T07:34:49.192Z,0.80
2023-02-03T07:37:41.245Z,0.79
2023-02-03T07:40:33.477Z,0.81
2023-02-03T07:43:25.873Z,0.85
2023-02-03T07:46:18.263Z,0.86
2023-02-03T07:49:10.822Z,0.86
2023-02-03T07:52:03.014Z,0.83
2023-02-03T07:54:55.111Z,0.78
2023-02-03T07:57:49.638Z,0.78
2023-02-03T08:00:42.008Z,0.83
2023-02-03T08:03:34.156Z,0.90
2023-02-03T08:06:26.357Z,0.94
2023-02-03T08:09:18.548Z,1.00
2023-02-03T08:12:10.755Z,1.05
2023-02-03T08:15:03.014Z,1.12
2023-02-03T08:17:55.188Z,1.18
2023-02-03T08:20:47.457Z,1.20
2023-02-03T08:23:39.711Z,1.19
2023-02-03T08:26:31.964Z,1.26
2023-02-03T08:29:24.377Z,1.35
2023-02-03T08:32:19.662Z,1.37
2023-02-03T08:35:12.176Z,1.42
2023-02-03T08:38:04.450Z,1.45
2023-02-03T08:40:56.517Z,1.50
2023-02-03T08:43:49.463Z,1.56
2023-02-03T08:46:44.163Z,1.60
2023-02-03T08:49:39.271Z,1.64
2023-02-03T08:52:31.668Z,1.70
2023-02-03T08:55:24.590Z,1.72
2023-02-03T08:58:16.768Z,1.70
2023-02-03T09:01:13.567Z,1.71
2023-02-03T09:04:08.265Z,1.70
2023-02-03T09:07:00.871Z,1.78
2023-02-03T09:09:53.036Z,1.86
2023-02-03T09:12:45.067Z,1.95
2023-02-03T09:15:38.016Z,2.01
2023-02-03T09:18:15.809Z,2.02
2023-02-03T09:21:13.910Z,2.08
2023-02-03T09:24:13.091Z,2.09
2023-02-03T09:27:05.352Z,2.06
2023-02-03T09:29:58.501Z,1.94
2023-02-03T09:32:54.375Z,1.78
2023-02-03T09:35:54.588Z,1.72
2023-02-03T09:38:47.045Z,1.63
2023-02-03T09:41:52.523Z,1.61
2023-02-03T09:44:50.120Z,1.54
2023-02-03T09:47:29.987Z,1.48
2023-02-03T09:50:25.230Z,1.53
2023-02-03T09:53:30.044Z,1.49
2023-02-03T09:56:28.359Z,1.52
2023-02-03T09:59:20.960Z,1.50
2023-02-03T10:02:29.911Z,1.44
2023-02-03T10:05:28.809Z,1.42
2023-02-03T10:08:31.560Z,1.33
2023-02-03T10:11:39.392Z,1.30
2023-02-03T10:14:46.289Z,1.21
2023-02-03T10:17:41.890Z,1.20
2023-02-03T10:20:40.455Z,1.30
2023-02-03T10:23:35.909Z,1.26
2023-02-03T10:26:30.001Z,1.30
2023-02-03T10:29:22.320Z,1.30
2023-02-03T10:32:15.928Z,1.25
2023-02-03T10:35:14.097Z,1.29
2023-02-03T10:38:14.723Z,1.33
2023-02-03T10:41:07.671Z,1.31
2023-02-03T10:44:03.660Z,1.29
2023-02-03T10:46:56.179Z,1.32
2023-02-03T10:49:31.052Z,1.32
2023-02-03T10:52:32.658Z,1.32
2023-02-03T10:55:41.215Z,1.33
2023-02-03T10:58:34.812Z,1.21
2023-02-03T11:01:29.215Z,1.12
2023-02-03T11:04:28.065Z,1.08
2023-02-03T11:07:28.371Z,1.11
2023-02-03T11:10:40.866Z,1.15
2023-02-03T11:13:33.092Z,1.17
2023-02-03T11:16:26.205Z,1.19
2023-02-03T11:19:22.679Z,1.18
2023-02-03T11:22:36.008Z,1.21
2023-02-03T11:25:38.036Z,1.26
2023-02-03T11:28:31.280Z,1.24
2023-02-03T11:31:27.445Z,1.28
2023-02-03T11:34:24.279Z,1.22
2023-02-03T11:37:33.006Z,1.17
2023-02-03T11:40:30.579Z,1.09
2023-02-03T11:43:25.384Z,1.08
2023-02-03T11:46:18.261Z,1.15
2023-02-03T11:49:29.243Z,1.21
2023-02-03T11:53:06.351Z,1.26
2023-02-03T11:56:17.508Z,1.31
2023-02-03T11:59:30.126Z,1.30
2023-02-03T12:02:48.053Z,1.28
2023-02-03T12:06:03.994Z,1.31
2023-02-03T12:09:08.422Z,1.36
2023-02-03T12:12:17.662Z,1.31
2023-02-03T12:15:26.075Z,1.32
2023-02-03T12:18:30.253Z,1.35
2023-02-03T12:21:38.253Z,1.44
2023-02-03T12:24:39.262Z,1.46
2023-02-03T12:27:42.908Z,1.47
2023-02-03T12:30:40.287Z,1.55
2023-02-03T12:33:36.688Z,1.58
2023-02-03T12:36:34.896Z,1.58
2023-02-03T12:39:31.706Z,1.61
2023-02-03T12:42:29.357Z,1.66
2023-02-03T12:45:25.521Z,1.64
2023-02-03T12:48:23.160Z,1.59
2023-02-03T12:51:22.572Z,1.59
2023-02-03T12:54:30.315Z,1.69
2023-02-03T12:57:28.379Z,1.73
2023-02-03T13:00:40.895Z,1.79
2023-02-03T13:03:56.199Z,1.88
2023-02-03T13:06:55.672Z,1.99
2023-02-03T13:09:56.081Z,2.03
2023-02-03T13:12:52.490Z,2.08
2023-02-03T13:15:47.552Z,2.13
2023-02-03T13:18:43.255Z,2.13
2023-02-03T13:21:17.614Z,2.11
2023-02-03T13:24:06.055Z,2.09
2023-02-03T13:27:14.536Z,1.99
2023-02-03T13:30:21.610Z,1.93
2023-02-03T13:33:48.188Z,1.92
2023-02-03T13:36:59.902Z,1.97
2023-02-03T13:40:04.591Z,1.93
2023-02-03T13:42:59.634Z,1.89
2023-02-03T13:45:53.694Z,1.86
2023-02-03T13:48:45.507Z,1.90
2023-02-03T13:51:46.001Z,1.90
2023-02-03T13:54:44.509Z,1.88
2023-02-03T13:57:39.053Z,1.88
2023-02-03T14:01:05.191Z,1.87
2023-02-03T14:03:58.098Z,1.93
2023-02-03T14:07:01.266Z,2.04
2023-02-03T14:09:43.002Z,2.04
2023-02-03T14:12:37.251Z,2.08
2023-02-03T14:15:39.598Z,2.11
2023-02-03T14:18:44.885Z,2.12
2023-02-03T14:21:47.307Z,2.13
2023-02-03T14:24:42.881Z,2.12
2023-02-03T14:27:35.400Z,2.12
2023-02-03T14:30:28.179Z,2.12
2023-02-03T14:33:31.788Z,2.11
2023-02-03T14:36:37.975Z,2.14
2023-02-03T14:40:00.918Z,2.12
2023-02-03T14:43:11.032Z,2.13
2023-02-03T14:46:30.053Z,2.12
2023-02-03T14:49:59.793Z,2.12
2023-02-03T14:53:11.065Z,2.13
2023-02-03T14:56:16.927Z,2.13
2023-02-03T14:59:12.931Z,2.15
2023-02-03T15:02:20.895Z,2.24
2023-02-03T15:05:39.600Z,2.26
2023-02-03T15:08:35.987Z,2.30
2023-02-03T15:11:33.703Z,2.36
2023-02-03T15:14:28.583Z,2.40
2023-02-03T15:17:27.479Z,2.43
2023-02-03T15:20:28.691Z,2.47
2023-02-03T15:23:23.916Z,2.49
2023-02-03T15:26:18.550Z,2.45
2023-02-03T15:29:24.932Z,2.40
2023-02-03T15:32:23.526Z,2.36
2023-02-03T15:35:18.763Z,2.45
2023-02-03T15:38:16.186Z,2.46
2023-02-03T15:41:12.535Z,2.53
2023-02-03T15:44:09.634Z,2.61
2023-02-03T15:47:03.805Z,2.69
2023-02-03T15:49:58.338Z,2.70
2023-02-03T15:52:54.390Z,2.73
2023-02-03T15:55:49.244Z,2.74
2023-02-03T15:58:36.323Z,2.75
2023-02-03T16:01:29.084Z,2.76
2023-02-03T16:04:22.650Z,2.78
2023-02-03T16:07:22.381Z,2.90
2023-02-03T16:10:30.027Z,2.94
2023-02-03T16:13:24.820Z,3.00
2023-02-03T16:16:21.616Z,3.08
2023-02-03T16:19:18.638Z,3.14
2023-02-03T16:22:32.480Z,3.16
2023-02-03T16:25:27.281Z,3.18
2023-02-03T16:28:38.232Z,3.18
2023-02-03T16:31:48.271Z,3.17
2023-02-03T16:34:58.003Z,3.18
2023-02-03T16:38:07.646Z,3.19
2023-02-03T16:40:59.930Z,3.17
2023-02-03T16:44:09.320Z,3.20
2023-02-03T16:47:18.796Z,3.30
2023-02-03T16:50:38.194Z,3.35
2023-02-03T16:53:33.284Z,3.41
2023-02-03T16:56:23.829Z,3.46
2023-02-03T16:59:16.442Z,3.51
2023-02-03T17:02:12.504Z,3.56
2023-02-03T17:05:04.760Z,3.56
2023-02-03T17:07:56.888Z,3.58
2023-02-03T17:10:49.716Z,3.58
2023-02-03T17:13:42.626Z,3.57
2023-02-03T17:16:34.886Z,3.55
2023-02-03T17:19:27.177Z,3.53
2023-02-03T17:22:19.441Z,3.52
2023-02-03T17:24:53.894Z,3.51
2023-02-03T17:27:46.224Z,3.51
2023-02-03T17:30:38.881Z,3.58
2023-02-03T17:33:13.581Z,3.60
2023-02-03T17:36:09.299Z,3.62
2023-02-03T17:54:51.854Z,3.76
2023-02-03T17:57:43.958Z,3.75
2023-02-03T18:00:21.718Z,3.75
2023-02-03T18:03:13.769Z,3.72
2023-02-03T18:06:06.334Z,3.72
2023-02-03T18:09:01.398Z,3.77
2023-02-03T18:11:53.659Z,3.79
2023-02-03T18:14:45.957Z,3.80
2023-02-03T18:17:38.255Z,3.83
2023-02-03T18:20:16.057Z,3.86
2023-02-03T18:23:08.332Z,3.88
2023-02-03T18:26:01.296Z,3.86
2023-02-03T18:28:55.768Z,3.87
2023-02-03T18:31:48.223Z,3.86
2023-02-03T18:34:30.588Z,3.85
2023-02-03T18:37:06.819Z,3.81
2023-02-03T18:39:59.100Z,3.79
2023-02-03T18:42:51.444Z,3.76
2023-02-03T18:45:43.715Z,3.75
2023-02-03T18:48:35.823Z,3.80
2023-02-03T18:51:28.894Z,3.82
2023-02-03T18:54:21.931Z,3.85
2023-02-03T18:57:15.790Z,3.86
2023-02-03T19:00:09.878Z,3.88
2023-02-03T19:03:02.099Z,3.88
2023-02-03T19:05:54.224Z,3.88
2023-02-03T19:08:46.840Z,3.87
2023-02-03T19:11:39.138Z,3.84
2023-02-03T19:14:32.622Z,3.74
2023-02-03T19:17:24.743Z,3.68
2023-02-03T19:20:17.336Z,3.69
2023-02-03T19:23:09.595Z,3.67
2023-02-03T19:26:02.724Z,3.66
2023-02-03T19:28:56.006Z,3.62
2023-02-03T19:31:48.808Z,3.57
2023-02-03T19:34:41.284Z,3.57
2023-02-03T19:37:18.520Z,3.54
2023-02-03T19:40:12.686Z,3.47
2023-02-03T19:43:04.193Z,3.37
2023-02-03T19:45:56.590Z,3.26
2023-02-03T19:48:49.727Z,3.26
2023-02-03T19:51:42.943Z,3.30
2023-02-03T19:54:35.835Z,3.28
2023-02-03T19:57:28.425Z,3.30
2023-02-03T20:00:22.111Z,3.32
2023-02-03T20:03:14.578Z,3.34
2023-02-03T20:06:07.489Z,3.35
2023-02-03T20:09:00.223Z,3.35
2023-02-03T20:11:52.795Z,3.31
2023-02-03T20:14:45.213Z,3.29
2023-02-03T20:17:37.875Z,3.27
2023-02-03T20:20:30.588Z,3.24
2023-02-03T20:23:22.916Z,3.20
2023-02-03T20:26:15.970Z,3.18
2023-02-03T20:29:08.544Z,3.25
2023-02-03T20:31:46.300Z,3.26
2023-02-03T20:34:38.865Z,3.28
2023-02-03T20:37:31.654Z,3.33
2023-02-03T20:40:26.855Z,3.38
2023-02-03T20:43:21.169Z,3.43
2023-02-03T20:45:58.514Z,3.45
2023-02-03T20:48:50.675Z,3.46
2023-02-03T20:51:43.132Z,3.46
2023-02-03T20:54:35.211Z,3.45
2023-02-03T20:57:28.178Z,3.43
2023-02-03T21:00:23.528Z,3.41
2023-02-03T21:03:35.356Z,3.38
2023-02-03T21:06:29.199Z,3.47
2023-02-03T21:09:24.128Z,3.49
2023-02-03T21:12:15.231Z,3.51
2023-02-03T21:15:31.273Z,3.54
2023-02-03T21:18:34.054Z,3.59
2023-02-03T21:21:34.956Z,3.62
2023-02-03T21:24:35.484Z,3.62
2023-02-03T21:27:30.683Z,3.63
2023-02-03T21:30:33.213Z,3.64
2023-02-03T21:33:29.775Z,3.63
2023-02-03T21:36:14.653Z,3.61
2023-02-03T21:39:30.803Z,3.58
2023-02-03T21:42:42.339Z,3.56
2023-02-03T21:45:42.444Z,3.58
2023-02-03T21:48:38.302Z,3.65
2023-02-03T21:51:34.786Z,3.63
2023-02-03T21:54:30.382Z,3.70
2023-02-03T21:57:23.060Z,3.73
2023-02-03T22:00:42.798Z,3.77
2023-02-03T22:03:39.654Z,3.77
2023-02-03T22:06:42.902Z,3.79
2023-02-03T22:09:34.940Z,3.81
2023-02-03T22:12:26.970Z,3.77
2023-02-03T22:15:03.924Z,3.75
2023-02-03T22:17:56.017Z,3.71
2023-02-03T22:20:36.882Z,3.68
2023-02-03T22:23:29.085Z,3.73
2023-02-03T22:26:22.100Z,3.77
2023-02-03T22:29:14.389Z,3.78
2023-02-03T22:32:06.755Z,3.81
2023-02-03T22:34:58.697Z,3.85
2023-02-03T22:37:52.642Z,3.88
2023-02-03T22:40:44.817Z,3.88
2023-02-03T22:43:36.948Z,3.88
2023-02-03T22:46:29.138Z,3.85
2023-02-03T22:49:21.276Z,3.82
2023-02-03T22:51:58.170Z,3.80
2023-02-03T22:54:50.248Z,3.78
2023-02-03T22:57:42.379Z,3.86
2023-02-03T23:00:35.315Z,3.87
2023-02-03T23:03:27.656Z,3.89
2023-02-03T23:06:20.063Z,3.90
2023-02-03T23:09:12.212Z,3.91
2023-02-03T23:11:54.651Z,3.91
2023-02-03T23:14:46.682Z,3.89
2023-02-03T23:17:21.839Z,3.86
2023-02-03T23:20:16.468Z,3.81
2023-02-03T23:23:08.622Z,3.79
2023-02-03T23:26:00.841Z,3.79
2023-02-03T23:28:53.152Z,3.85
2023-02-03T23:31:45.483Z,3.85
2023-02-03T23:34:55.654Z,3.87
2023-02-03T23:37:47.964Z,3.90
2023-02-03T23:40:40.059Z,3.89
2023-02-03T23:43:32.157Z,3.89
2023-02-03T23:46:24.370Z,3.89
2023-02-03T23:49:16.761Z,3.88
2023-02-03T23:52:09.030Z,3.87
2023-02-03T23:55:01.389Z,3.85
2023-02-03T23:57:53.475Z,3.91
